createdAt,value
2022-12-23T00:00:45.096Z,9.43
2022-12-23T00:03:24.304Z,9.90
2022-12-23T00:05:52.271Z,8.10
2022-12-23T00:08:20.202Z,8.02
2022-12-23T00:10:49.524Z,9.32
2022-12-23T00:13:36.078Z,9.13
2022-12-23T00:16:09.518Z,9.15
2022-12-23T00:18:37.348Z,9.48
2022-12-23T00:21:10.535Z,8.27
2022-12-23T00:23:40.933Z,10.40
2022-12-23T00:26:21.885Z,9.50
2022-12-23T00:28:49.878Z,8.05
2022-12-23T00:31:18.833Z,8.13
2022-12-23T00:33:47.990Z,8.18
2022-12-23T00:36:25.659Z,8.38
2022-12-23T00:39:12.455Z,9.32
2022-12-23T00:41:58.575Z,8.90
2022-12-23T00:44:26.240Z,7.95
2022-12-23T00:46:54.007Z,8.23
2022-12-23T00:49:39.861Z,10.48
2022-12-23T00:52:10.080Z,8.80
2022-12-23T00:54:37.382Z,8.77
2022-12-23T00:57:05.101Z,9.63
2022-12-23T00:59:33.466Z,9.50
2022-12-23T01:02:19.993Z,8.45
2022-12-23T01:05:06.066Z,8.52
2022-12-23T01:07:33.660Z,7.82
2022-12-23T01:10:00.908Z,9.05
2022-12-23T01:12:28.618Z,7.90
2022-12-23T01:14:55.964Z,8.50
2022-12-23T01:17:23.757Z,8.80
2022-12-23T01:19:51.534Z,8.80
2022-12-23T01:22:19.066Z,8.38
2022-12-23T01:24:46.272Z,6.85
2022-12-23T01:27:13.825Z,8.48
2022-12-23T01:29:41.115Z,8.48
2022-12-23T01:32:08.736Z,7.95
2022-12-23T01:34:37.636Z,8.90
2022-12-23T01:37:05.947Z,8.80
2022-12-23T01:39:33.188Z,8.27
2022-12-23T01:42:22.739Z,7.55
2022-12-23T01:45:05.941Z,7.03
2022-12-23T01:47:42.323Z,6.93
2022-12-23T01:50:15.127Z,6.90
2022-12-23T01:53:09.638Z,8.40
2022-12-23T01:55:42.260Z,7.85
2022-12-23T01:58:45.862Z,8.52
2022-12-23T02:01:32.441Z,8.80
2022-12-23T02:04:05.245Z,8.77
2022-12-23T02:06:55.211Z,7.85
2022-12-23T02:09:24.570Z,8.02
2022-12-23T02:12:29.485Z,8.85
2022-12-23T02:15:25.429Z,8.52
2022-12-23T02:18:19.985Z,8.27
2022-12-23T02:21:34.637Z,8.20
2022-12-23T02:24:11.888Z,8.43
2022-12-23T02:27:15.191Z,7.85
2022-12-23T02:30:03.793Z,9.05
2022-12-23T02:32:49.712Z,7.15
2022-12-23T02:37:57.706Z,8.00
2022-12-23T02:40:52.795Z,8.30
2022-12-23T02:43:23.898Z,8.38
2022-12-23T02:46:04.920Z,7.65
2022-12-23T02:48:56.646Z,7.97
2022-12-23T02:51:30.141Z,7.75
2022-12-23T02:54:02.272Z,8.63
2022-12-23T02:56:33.994Z,7.65
2022-12-23T02:59:21.913Z,7.65
2022-12-23T03:01:51.884Z,8.10
2022-12-23T03:04:19.639Z,8.48
2022-12-23T03:06:54.266Z,8.52
2022-12-23T03:09:27.209Z,7.95
2022-12-23T03:12:16.031Z,8.02
2022-12-23T03:15:11.763Z,7.53
2022-12-23T03:18:00.328Z,9.13
2022-12-23T03:20:50.139Z,10.60
2022-12-23T03:23:39.280Z,8.77
2022-12-23T03:26:23.419Z,8.25
2022-12-23T03:29:15.570Z,7.43
2022-12-23T03:31:45.479Z,8.98
2022-12-23T03:34:18.444Z,8.07
2022-12-23T03:36:51.463Z,7.50
2022-12-23T03:39:26.375Z,7.97
2022-12-23T03:42:01.935Z,8.68
2022-12-23T03:44:37.245Z,7.85
2022-12-23T03:47:07.599Z,8.23
2022-12-23T03:49:45.357Z,8.82
2022-12-23T03:52:21.205Z,8.35
2022-12-23T03:54:53.790Z,7.80
2022-12-23T03:57:58.830Z,7.53
2022-12-23T04:00:30.443Z,7.93
2022-12-23T04:03:10.673Z,7.10
2022-12-23T04:05:41.820Z,7.15
2022-12-23T04:08:18.655Z,7.80
2022-12-23T04:10:46.683Z,8.77
2022-12-23T04:13:14.308Z,8.13
2022-12-23T04:15:42.357Z,7.72
2022-12-23T04:18:11.366Z,7.00
2022-12-23T04:20:38.641Z,6.90
2022-12-23T04:23:06.373Z,8.95
2022-12-23T04:25:33.675Z,8.27
2022-12-23T04:28:01.351Z,8.13
2022-12-23T04:30:33.998Z,7.50
2022-12-23T04:33:03.191Z,7.82
2022-12-23T04:35:31.390Z,7.07
2022-12-23T04:37:58.986Z,8.52
2022-12-23T04:40:26.662Z,6.68
2022-12-23T04:42:54.188Z,7.80
2022-12-23T04:45:21.840Z,7.95
2022-12-23T04:47:49.945Z,7.93
2022-12-23T04:50:17.213Z,7.95
2022-12-23T04:52:44.754Z,8.52
2022-12-23T04:55:12.848Z,8.38
2022-12-23T04:57:40.446Z,7.93
2022-12-23T05:00:08.499Z,8.75
2022-12-23T05:02:36.306Z,8.23
2022-12-23T05:05:04.136Z,7.72
2022-12-23T05:07:32.380Z,102.00
2022-12-23T05:10:01.883Z,108.30
2022-12-23T05:12:31.178Z,97.00
2022-12-23T05:14:58.539Z,83.78
2022-12-23T05:17:26.808Z,66.25
2022-12-23T05:19:54.081Z,60.88
2022-12-23T05:22:21.614Z,56.22
2022-12-23T05:24:48.919Z,50.88
2022-12-23T05:27:16.475Z,49.13
2022-12-23T05:29:43.757Z,47.80
2022-12-23T05:32:11.463Z,44.08
2022-12-23T05:34:38.788Z,38.20
2022-12-23T05:37:06.689Z,39.58
2022-12-23T05:39:34.070Z,36.30
2022-12-23T05:42:01.584Z,33.00
2022-12-23T05:44:28.831Z,33.33
2022-12-23T05:46:56.515Z,30.92
2022-12-23T05:49:25.308Z,32.35
2022-12-23T05:51:52.871Z,33.25
2022-12-23T05:54:20.706Z,28.58
2022-12-23T05:56:48.262Z,29.02
2022-12-23T05:59:15.568Z,23.27
2022-12-23T06:01:44.134Z,24.08
2022-12-23T06:04:12.331Z,23.00
2022-12-23T06:06:39.978Z,23.98
2022-12-23T06:09:07.261Z,22.33
2022-12-23T06:11:34.840Z,25.35
2022-12-23T06:14:02.785Z,23.67
2022-12-23T06:16:30.483Z,19.45
2022-12-23T06:18:57.953Z,21.05
2022-12-23T06:21:25.588Z,21.58
2022-12-23T06:23:52.879Z,17.85
2022-12-23T06:26:20.651Z,18.02
2022-12-23T06:28:47.907Z,17.90
2022-12-23T06:31:15.882Z,16.02
2022-12-23T06:33:43.212Z,17.95
2022-12-23T06:36:10.838Z,20.10
2022-12-23T06:38:38.034Z,20.63
2022-12-23T06:41:05.694Z,17.48
2022-12-23T06:43:33.295Z,13.77
2022-12-23T06:46:01.184Z,16.42
2022-12-23T06:48:28.516Z,14.73
2022-12-23T06:50:56.235Z,13.20
2022-12-23T06:53:23.654Z,14.23
2022-12-23T06:55:59.910Z,15.93
2022-12-23T06:58:27.252Z,15.35
2022-12-23T07:00:55.255Z,14.63
2022-12-23T07:03:22.668Z,13.77
2022-12-23T07:05:51.110Z,13.98
2022-12-23T07:08:18.777Z,13.57
2022-12-23T07:10:46.465Z,13.27
2022-12-23T07:13:14.727Z,12.48
2022-12-23T07:15:42.337Z,20.65
2022-12-23T07:18:09.597Z,14.55
2022-12-23T07:20:37.500Z,14.60
2022-12-23T07:23:04.908Z,14.13
2022-12-23T07:25:32.438Z,19.35
2022-12-23T07:27:59.658Z,17.52
2022-12-23T07:30:27.426Z,16.92
2022-12-23T07:32:54.786Z,17.75
2022-12-23T07:35:22.680Z,16.35
2022-12-23T07:37:56.435Z,15.38
2022-12-23T07:40:25.758Z,13.77
2022-12-23T07:42:58.397Z,14.98
2022-12-23T07:45:27.547Z,15.48
2022-12-23T07:47:57.116Z,15.00
2022-12-23T07:50:25.712Z,17.90
2022-12-23T07:52:54.091Z,17.73
2022-12-23T07:55:22.149Z,12.63
2022-12-23T07:57:50.828Z,13.00
2022-12-23T08:00:19.542Z,14.27
2022-12-23T08:02:48.041Z,13.18
2022-12-23T08:05:16.956Z,13.80
2022-12-23T08:07:49.338Z,13.55
2022-12-23T08:10:17.018Z,13.65
2022-12-23T08:12:46.455Z,13.60
2022-12-23T08:15:14.123Z,12.40
2022-12-23T08:17:43.209Z,12.00
2022-12-23T08:20:11.122Z,11.57
2022-12-23T08:22:38.519Z,14.40
2022-12-23T08:25:06.735Z,12.45
2022-12-23T08:27:34.594Z,16.00
2022-12-23T08:30:02.607Z,16.45
2022-12-23T08:32:29.952Z,15.35
2022-12-23T08:34:57.657Z,18.58
2022-12-23T08:37:25.662Z,18.05
2022-12-23T08:39:53.209Z,21.48
2022-12-23T08:42:20.562Z,22.35
2022-12-23T08:44:48.240Z,23.95
2022-12-23T08:47:15.569Z,24.02
2022-12-23T08:49:43.237Z,27.48
2022-12-23T08:52:10.513Z,26.30
2022-12-23T08:54:38.124Z,23.63
2022-12-23T08:57:05.353Z,28.83
2022-12-23T08:59:32.931Z,30.15
2022-12-23T09:02:02.060Z,33.70
2022-12-23T09:04:29.807Z,23.73
2022-12-23T09:06:57.076Z,27.52
2022-12-23T09:09:24.683Z,26.95
2022-12-23T09:11:51.980Z,30.42
2022-12-23T09:14:19.612Z,29.05
2022-12-23T09:16:50.360Z,29.48
2022-12-23T09:19:18.102Z,23.63
2022-12-23T09:21:45.384Z,25.27
2022-12-23T09:24:12.706Z,27.45
2022-12-23T09:26:41.284Z,28.40
2022-12-23T12:20:21.606Z,59.08
2022-12-23T12:22:53.008Z,82.00
2022-12-23T12:25:26.097Z,50.20
2022-12-23T12:27:59.714Z,81.07
2022-12-23T12:30:35.199Z,76.53
2022-12-23T12:33:27.778Z,91.20
2022-12-23T12:36:11.188Z,55.03
2022-12-23T12:38:40.014Z,58.53
2022-12-23T12:41:11.363Z,39.15
2022-12-23T12:43:44.371Z,40.70
2022-12-23T12:46:28.112Z,34.20
2022-12-23T12:49:18.958Z,25.65
2022-12-23T12:52:16.142Z,20.25
2022-12-23T12:54:46.539Z,16.23
2022-12-23T12:57:20.174Z,13.57
2022-12-23T13:00:05.309Z,14.13
2022-12-23T13:03:12.074Z,11.02
2022-12-23T13:06:13.336Z,13.97
2022-12-23T13:09:10.868Z,13.07
2022-12-23T13:11:45.695Z,13.50
2022-12-23T13:14:45.349Z,16.13
2022-12-23T13:17:28.881Z,11.90
2022-12-23T13:20:10.392Z,9.98
2022-12-23T13:22:39.908Z,12.05
2022-12-23T13:25:49.968Z,12.27
2022-12-23T13:28:37.394Z,10.45
2022-12-23T13:31:23.059Z,11.15
2022-12-23T13:34:22.562Z,11.85
2022-12-23T13:37:07.667Z,12.55
2022-12-23T13:39:55.953Z,9.68
2022-12-23T13:42:31.115Z,11.88
2022-12-23T13:45:00.008Z,11.15
2022-12-23T13:48:10.663Z,9.77
2022-12-23T13:51:04.151Z,10.55
2022-12-23T13:54:04.526Z,9.23
2022-12-23T13:56:41.769Z,8.23
2022-12-23T13:59:11.665Z,8.90
2022-12-23T14:01:41.945Z,8.32
2022-12-23T14:04:34.806Z,7.70
2022-12-23T14:07:22.607Z,6.13
2022-12-23T14:09:57.223Z,7.68
2022-12-23T14:12:39.558Z,7.97
2022-12-23T14:15:26.135Z,6.43
2022-12-23T14:18:30.535Z,8.07
2022-12-23T14:21:07.156Z,6.65
2022-12-23T14:24:05.426Z,6.60
2022-12-23T14:26:57.851Z,7.80
2022-12-23T14:29:52.778Z,6.07
2022-12-23T14:32:25.259Z,9.48
2022-12-23T14:35:18.290Z,8.68
2022-12-23T14:38:08.159Z,7.30
2022-12-23T14:40:38.482Z,6.97
2022-12-23T14:43:27.703Z,6.60
2022-12-23T14:45:56.897Z,7.30
2022-12-23T14:48:33.337Z,7.18
2022-12-23T14:51:10.734Z,7.15
2022-12-23T14:54:00.091Z,10.30
2022-12-23T14:56:59.988Z,8.82
2022-12-23T14:59:40.768Z,7.75
2022-12-23T15:02:30.360Z,6.90
2022-12-23T15:04:59.135Z,5.43
2022-12-23T15:07:32.920Z,6.70
2022-12-23T15:10:05.877Z,6.95
2022-12-23T15:12:37.078Z,7.88
2022-12-23T15:15:28.095Z,6.68
2022-12-23T15:18:09.780Z,6.55
2022-12-23T15:20:37.610Z,6.88
2022-12-23T15:23:15.888Z,6.97
2022-12-23T15:25:48.835Z,7.20
2022-12-23T15:28:20.131Z,6.10
2022-12-23T15:30:52.364Z,5.65
2022-12-23T15:36:15.342Z,7.50
2022-12-23T15:38:42.723Z,7.53
2022-12-23T15:41:18.471Z,7.35
2022-12-23T15:43:46.194Z,6.65
2022-12-23T15:46:29.229Z,7.70
2022-12-23T15:48:58.228Z,7.35
2022-12-23T15:54:45.422Z,7.25
2022-12-23T15:57:19.278Z,5.78
2022-12-23T15:59:46.750Z,8.07
2022-12-23T16:05:37.594Z,9.75
2022-12-23T16:08:21.789Z,9.00
2022-12-23T16:11:03.539Z,9.93
2022-12-23T16:13:31.837Z,9.32
2022-12-23T16:16:18.793Z,10.40
2022-12-23T16:18:47.919Z,9.20
2022-12-23T16:21:15.933Z,9.73
2022-12-23T16:23:51.203Z,7.95
2022-12-23T16:26:19.808Z,8.48
2022-12-23T16:28:51.060Z,9.27
2022-12-23T16:31:20.304Z,8.38
2022-12-23T16:33:47.815Z,8.23
2022-12-23T16:36:27.014Z,8.00
2022-12-23T16:39:05.683Z,9.95
2022-12-23T16:41:33.730Z,8.27
2022-12-23T16:44:02.100Z,8.77
2022-12-23T16:46:37.336Z,10.27
2022-12-23T16:49:08.327Z,7.80
2022-12-23T16:51:37.899Z,7.50
2022-12-23T16:54:05.490Z,11.57
2022-12-23T16:56:36.002Z,11.35
2022-12-23T16:59:03.927Z,8.57
2022-12-23T17:01:34.754Z,12.32
2022-12-23T17:04:03.135Z,8.40
2022-12-23T17:06:30.535Z,10.02
2022-12-23T17:08:58.266Z,12.15
2022-12-23T17:11:29.030Z,11.13
2022-12-23T17:14:03.860Z,11.30
2022-12-23T17:16:33.944Z,12.15
2022-12-23T17:19:01.602Z,12.30
2022-12-23T17:21:31.018Z,16.25
2022-12-23T17:24:12.871Z,13.43
2022-12-23T17:26:40.153Z,12.13
2022-12-23T17:29:12.035Z,9.85
2022-12-23T17:31:42.023Z,12.75
2022-12-23T17:34:23.461Z,12.07
2022-12-23T17:36:51.455Z,13.48
2022-12-23T17:39:20.250Z,11.88
2022-12-23T17:41:48.495Z,9.18
2022-12-23T17:44:17.848Z,10.50
2022-12-23T17:46:46.602Z,10.88
2022-12-23T17:49:14.370Z,9.93
2022-12-23T17:51:42.758Z,15.02
2022-12-23T17:54:30.726Z,9.98
2022-12-23T17:56:58.132Z,11.45
2022-12-23T17:59:25.904Z,13.07
2022-12-23T18:01:54.202Z,11.82
2022-12-23T18:04:21.965Z,13.20
2022-12-23T18:06:49.378Z,10.68
2022-12-23T18:09:18.824Z,15.82
2022-12-23T18:11:47.466Z,14.38
2022-12-23T18:14:23.663Z,13.93
2022-12-23T18:16:50.937Z,14.68
2022-12-23T18:19:20.135Z,15.32
2022-12-23T18:21:48.001Z,13.60
2022-12-23T18:24:15.935Z,13.18
2022-12-23T18:26:43.574Z,16.83
2022-12-23T18:29:11.222Z,16.88
2022-12-23T18:31:50.997Z,15.77
2022-12-23T18:34:20.378Z,16.45
2022-12-23T18:36:48.318Z,18.17
2022-12-23T18:39:16.167Z,14.20
2022-12-23T18:41:43.480Z,13.57
2022-12-23T18:44:20.857Z,15.75
2022-12-23T18:46:48.949Z,16.92
2022-12-23T18:49:16.633Z,14.10
2022-12-23T18:51:43.875Z,11.52
2022-12-23T18:54:16.056Z,15.38
2022-12-23T18:56:43.816Z,12.80
2022-12-23T18:59:24.252Z,17.27
2022-12-23T19:01:57.499Z,12.18
2022-12-23T19:04:26.693Z,14.13
2022-12-23T19:06:55.887Z,17.83
2022-12-23T19:09:24.717Z,14.43
2022-12-23T19:11:53.529Z,15.88
2022-12-23T19:14:22.069Z,12.77
2022-12-23T19:16:51.932Z,13.48
2022-12-23T19:19:21.022Z,10.63
2022-12-23T19:21:48.780Z,12.02
2022-12-23T19:24:16.617Z,13.48
2022-12-23T19:26:43.888Z,14.82
2022-12-23T19:29:13.917Z,13.52
2022-12-23T19:31:41.314Z,13.02
2022-12-23T19:34:15.107Z,14.65
2022-12-23T19:36:43.615Z,10.73
2022-12-23T19:39:17.256Z,14.48
2022-12-23T19:41:45.678Z,13.82
2022-12-23T19:44:13.968Z,12.63
2022-12-23T19:46:41.736Z,10.50
2022-12-23T19:49:14.015Z,13.60
2022-12-23T19:51:45.188Z,13.95
2022-12-23T19:54:12.847Z,13.00
2022-12-23T19:56:40.968Z,13.02
2022-12-23T19:59:08.958Z,12.70
2022-12-23T20:01:36.239Z,15.45
2022-12-23T20:04:04.844Z,15.70
2022-12-23T20:06:34.744Z,14.63
2022-12-23T20:09:06.325Z,11.27
2022-12-23T20:11:42.202Z,13.45
2022-12-23T20:14:10.833Z,14.15
2022-12-23T20:16:39.365Z,16.13
2022-12-23T20:19:08.227Z,10.93
2022-12-23T20:21:38.491Z,14.15
2022-12-23T20:24:06.855Z,11.32
2022-12-23T20:26:34.331Z,15.13
2022-12-23T20:29:01.969Z,9.05
2022-12-23T20:31:31.689Z,11.55
2022-12-23T20:34:01.203Z,13.13
2022-12-23T20:36:31.719Z,11.23
2022-12-23T20:39:02.022Z,12.35
2022-12-23T20:41:31.496Z,12.55
2022-12-23T20:46:47.570Z,14.27
2022-12-23T20:49:15.274Z,10.98
2022-12-23T20:51:42.595Z,10.27
2022-12-23T20:54:10.270Z,13.32
2022-12-23T20:56:37.591Z,12.60
2022-12-23T20:59:05.293Z,12.82
2022-12-23T21:01:38.905Z,17.73
2022-12-23T21:04:09.701Z,12.73
2022-12-23T21:06:37.113Z,12.85
2022-12-23T21:09:06.745Z,13.35
2022-12-23T21:11:37.689Z,12.60
2022-12-23T21:14:07.449Z,12.98
2022-12-23T21:16:36.814Z,13.55
2022-12-23T21:19:08.409Z,14.35
2022-12-23T21:21:35.883Z,14.23
2022-12-23T21:24:05.075Z,17.00
2022-12-23T21:26:33.999Z,12.07
2022-12-23T21:29:04.491Z,16.33
2022-12-23T21:31:34.417Z,11.98
2022-12-23T21:34:02.540Z,11.68
2022-12-23T21:36:32.518Z,10.95
2022-12-23T21:39:00.654Z,11.82
2022-12-23T21:41:31.225Z,11.65
2022-12-23T21:44:00.155Z,12.43
2022-12-23T21:46:28.955Z,11.40
2022-12-23T21:48:58.674Z,13.23
2022-12-23T21:51:33.311Z,13.23
2022-12-23T21:54:07.294Z,13.70
2022-12-23T21:56:35.516Z,12.20
2022-12-23T21:59:10.214Z,13.00
2022-12-23T22:01:38.112Z,11.27
2022-12-23T22:04:06.217Z,12.07
2022-12-23T22:06:37.196Z,10.00
2022-12-23T22:09:06.635Z,12.80
2022-12-23T22:11:36.659Z,13.25
2022-12-23T22:14:06.690Z,11.60
2022-12-23T22:16:35.841Z,10.90
2022-12-23T22:19:04.951Z,11.02
2022-12-23T22:21:33.783Z,10.75
2022-12-23T22:24:02.854Z,13.80
2022-12-23T22:26:31.859Z,14.18
2022-12-23T22:29:01.991Z,10.90
2022-12-23T23:12:54.467Z,13.35
2022-12-23T23:15:22.079Z,15.35
2022-12-23T23:17:49.373Z,13.43
2022-12-23T23:20:17.038Z,13.95
2022-12-23T23:22:44.545Z,13.88
2022-12-23T23:25:12.127Z,12.75
2022-12-23T23:27:39.340Z,15.15
2022-12-23T23:30:07.495Z,13.43
2022-12-23T23:32:34.904Z,13.98
2022-12-23T23:35:08.711Z,13.77
2022-12-23T23:37:38.001Z,13.70
2022-12-23T23:40:06.428Z,13.60
2022-12-23T23:42:34.203Z,16.58
2022-12-23T23:45:01.860Z,13.63
2022-12-23T23:47:34.365Z,14.77
2022-12-23T23:50:03.831Z,15.38
2022-12-23T23:52:31.366Z,12.88
2022-12-23T23:54:58.936Z,14.13
2022-12-23T23:57:26.811Z,17.42
2022-12-23T23:59:54.399Z,14.32
